Time;durP1;ratioP1;P1;durP2;ratioP2;P2;SDS_P1;SDS_P2;PMS_P1;PMS_P2;Temp;Humidity;BMP_temperature;BMP_pressure;BME280_temperature;BME280_humidity;BME280_pressure;Samples;Min_cycle;Max_cycle;Signal;HPM_P1;HPM_P2
2023/07/11 11:53:46;;;;;;;3.00;1.55;;;29.90;93.60;;;;;;4312252;23;20228;-70
2023/07/11 11:56:15;;;;;;;1.52;0.90;;;30.20;94.90;;;;;;4966951;28;20214;-70
2023/07/11 11:58:52;;;;;;;1.92;1.00;;;30.40;94.10;;;;;;4964271;28;20223;-68
2023/07/11 12:01:34;;;;;;;2.40;1.25;;;30.20;93.80;;;;;;4948483;28;20236;-69
2023/07/11 12:04:02;;;;;;;4.93;1.00;;;30.20;93.80;;;;;;4948329;29;20208;-70
2023/07/11 12:06:34;;;;;;;2.20;1.15;;;30.10;94.00;;;;;;4954678;28;20693;-72
2023/07/11 12:09:33;;;;;;;2.05;1.30;;;30.10;94.80;;;;;;4954540;28;20204;-68
2023/07/11 12:12:08;;;;;;;2.83;1.20;;;30.10;94.80;;;;;;4940759;28;20209;-69
2023/07/11 12:14:37;;;;;;;3.05;0.95;;;30.20;93.40;;;;;;4945675;29;20380;-71
2023/07/11 12:17:05;;;;;;;1.95;0.82;;;30.30;94.70;;;;;;4954865;28;20216;-71
2023/07/11 12:19:38;;;;;;;2.33;1.08;;;30.50;94.70;;;;;;4954446;28;20204;-69
2023/07/11 12:22:07;;;;;;;1.20;0.90;;;30.60;93.70;;;;;;4954336;28;20211;-70
2023/07/11 12:24:43;;;;;;;1.65;0.90;;;30.60;94.20;;;;;;4954808;28;20292;-71
2023/07/11 12:27:33;;;;;;;3.05;1.25;;;30.50;94.30;;;;;;4954563;28;20670;-68
2023/07/11 12:30:01;;;;;;;2.45;0.98;;;30.50;94.60;;;;;;4950862;28;20578;-68
2023/07/11 12:32:40;;;;;;;2.17;1.10;;;30.60;94.70;;;;;;4954214;28;20218;-70
2023/07/11 12:35:14;;;;;;;1.75;1.00;;;30.50;94.50;;;;;;4954635;28;20306;-70
2023/07/11 12:37:47;;;;;;;2.72;1.10;;;30.60;94.20;;;;;;4954338;28;20212;-70
2023/07/11 12:40:18;;;;;;;1.60;0.85;;;30.70;94.60;;;;;;4954196;28;20251;-68
2023/07/11 12:42:51;;;;;;;3.72;1.10;;;30.80;94.40;;;;;;4935254;29;20219;-71
2023/07/11 12:45:21;;;;;;;3.42;1.75;;;30.90;94.40;;;;;;4949800;29;20200;-70
2023/07/11 12:47:51;;;;;;;2.05;0.80;;;30.80;94.20;;;;;;4956452;28;20208;-68
2023/07/11 12:50:23;;;;;;;2.75;1.00;;;30.60;93.50;;;;;;4956713;28;20713;-68
2023/07/11 12:53:00;;;;;;;2.85;0.88;;;30.40;93.80;;;;;;4958955;28;20567;-68
2023/07/11 12:55:29;;;;;;;1.92;1.08;;;30.50;94.00;;;;;;4958183;28;20240;-69
2023/07/11 12:57:58;;;;;;;2.85;1.05;;;30.70;93.90;;;;;;4954824;28;20403;-71
2023/07/11 13:00:29;;;;;;;3.03;1.10;;;30.80;93.70;;;;;;4954735;28;20224;-69
2023/07/11 13:03:01;;;;;;;3.50;1.27;;;30.90;94.30;;;;;;4937921;29;20219;-70
2023/07/11 13:05:28;;;;;;;1.58;0.88;;;30.90;93.60;;;;;;4951476;29;20298;-72
2023/07/11 13:07:54;;;;;;;4.57;1.25;;;31.20;94.00;;;;;;4956355;28;20235;-68
2023/07/11 13:10:26;;;;;;;1.20;0.90;;;31.10;93.90;;;;;;4955888;28;20231;-71
2023/07/11 13:12:53;;;;;;;2.58;1.00;;;31.10;93.30;;;;;;4955795;28;20675;-68
2023/07/11 13:15:23;;;;;;;4.60;0.98;;;31.00;93.10;;;;;;4956363;28;20211;-71
2023/07/11 13:17:52;;;;;;;2.53;0.90;;;30.90;92.90;;;;;;4956372;28;20214;-72
2023/07/11 13:20:21;;;;;;;2.10;0.90;;;30.90;93.80;;;;;;4955367;28;20262;-70
2023/07/11 13:22:49;;;;;;;2.95;1.20;;;30.90;93.70;;;;;;4956243;28;20230;-72
2023/07/11 13:25:18;;;;;;;1.90;1.00;;;30.80;93.30;;;;;;4956120;28;20570;-71
2023/07/11 13:27:47;;;;;;;2.25;0.95;;;30.90;93.10;;;;;;4955509;28;20211;-71
2023/07/11 13:30:25;;;;;;;1.67;0.88;;;31.10;93.20;;;;;;4955467;28;20243;-70
2023/07/11 13:32:56;;;;;;;3.47;1.00;;;31.30;92.90;;;;;;4936454;29;20204;-72
2023/07/11 13:35:24;;;;;;;1.48;0.65;;;31.30;92.60;;;;;;4948878;29;20214;-72
2023/07/11 13:37:51;;;;;;;1.60;0.98;;;31.30;92.60;;;;;;4956057;28;20212;-72
2023/07/11 13:40:40;;;;;;;1.45;1.00;;;31.20;92.80;;;;;;4955644;28;20224;-72
2023/07/11 13:43:17;;;;;;;3.83;1.38;;;31.30;93.20;;;;;;4951942;28;20214;-71
2023/07/11 13:45:45;;;;;;;2.55;1.00;;;31.60;92.70;;;;;;4956160;28;20200;-71
2023/07/11 13:48:19;;;;;;;2.33;1.00;;;31.60;92.10;;;;;;4950357;28;20209;-71
2023/07/11 13:50:46;;;;;;;1.40;0.68;;;31.40;93.60;;;;;;4936259;29;20248;-68
2023/07/11 13:53:16;;;;;;;1.83;0.82;;;31.40;92.50;;;;;;4936217;29;20221;-70
2023/07/11 13:55:50;;;;;;;3.03;1.08;;;31.50;92.80;;;;;;4936227;29;20303;-67
2023/07/11 13:58:17;;;;;;;1.23;1.02;;;31.30;92.70;;;;;;4938075;29;20299;-70
2023/07/11 14:00:48;;;;;;;2.25;0.98;;;31.40;93.20;;;;;;4937981;29;20243;-70
2023/07/11 14:03:17;;;;;;;2.95;1.33;;;31.40;93.00;;;;;;4937834;29;20537;-70
2023/07/11 14:05:47;;;;;;;4.05;1.55;;;31.60;93.50;;;;;;4937995;29;20209;-70
2023/07/11 14:08:15;;;;;;;1.95;0.88;;;31.30;92.20;;;;;;4937930;29;20233;-72
2023/07/11 14:10:42;;;;;;;2.10;1.05;;;31.00;92.90;;;;;;4937576;29;20599;-73
2023/07/11 14:13:13;;;;;;;1.80;1.13;;;31.10;93.40;;;;;;4937510;29;20209;-74
2023/07/11 14:15:40;;;;;;;2.17;0.95;;;31.20;93.10;;;;;;4937596;29;20660;-75
2023/07/11 14:18:11;;;;;;;3.08;0.90;;;31.30;93.00;;;;;;4937619;29;20307;-74
2023/07/11 14:20:39;;;;;;;1.23;1.05;;;31.30;93.40;;;;;;4937315;29;20707;-76
2023/07/11 14:23:21;;;;;;;2.25;1.00;;;31.50;92.70;;;;;;4937709;29;20204;-75
2023/07/11 14:25:48;;;;;;;1.98;1.10;;;31.50;93.00;;;;;;4937608;29;20244;-76
2023/07/11 14:28:17;;;;;;;1.92;0.93;;;31.60;93.10;;;;;;4937180;29;20209;-75
2023/07/11 14:30:44;;;;;;;1.83;1.00;;;31.60;92.80;;;;;;4937321;29;20272;-79
2023/07/11 14:33:14;;;;;;;2.40;0.90;;;31.60;93.70;;;;;;4935720;29;20620;-76
2023/07/11 14:35:41;;;;;;;1.42;1.00;;;31.60;92.90;;;;;;4955152;28;20208;-76
2023/07/11 14:38:12;;;;;;;4.57;0.95;;;31.80;92.80;;;;;;4956225;28;20295;-76
2023/07/11 14:40:39;;;;;;;2.75;1.02;;;31.70;92.60;;;;;;4956214;28;20228;-75
2023/07/11 14:43:11;;;;;;;1.27;1.00;;;31.50;93.20;;;;;;4954334;28;20231;-75
2023/07/11 14:45:40;;;;;;;1.88;1.02;;;31.50;92.80;;;;;;4936696;29;20208;-74
2023/07/11 14:48:14;;;;;;;1.85;0.95;;;31.30;93.00;;;;;;4938373;29;20567;-74
2023/07/11 14:50:41;;;;;;;2.65;0.93;;;31.20;92.70;;;;;;4955973;28;20247;-72
2023/07/11 14:53:24;;;;;;;1.48;0.90;;;31.10;93.20;;;;;;4946864;28;20238;-74
2023/07/11 14:55:51;;;;;;;3.75;0.95;;;31.20;92.80;;;;;;4935372;29;20319;-72
2023/07/11 14:58:18;;;;;;;1.42;0.80;;;31.00;93.10;;;;;;4938309;29;20200;-74
2023/07/11 15:00:46;;;;;;;2.28;1.02;;;31.20;93.10;;;;;;4953747;28;20228;-73
2023/07/11 15:03:18;;;;;;;1.95;0.80;;;31.30;93.30;;;;;;4953406;28;20240;-74
2023/07/11 15:05:45;;;;;;;5.07;1.33;;;31.40;92.90;;;;;;4954349;28;20218;-72
2023/07/11 15:08:18;;;;;;;1.30;0.88;;;31.10;93.50;;;;;;4955775;28;20310;-73
2023/07/11 15:10:45;;;;;;;2.00;0.90;;;31.40;93.30;;;;;;4954562;28;20560;-72
2023/07/11 15:13:12;;;;;;;2.03;1.10;;;31.40;93.40;;;;;;4954364;28;20598;-68
2023/07/11 15:15:39;;;;;;;2.90;1.30;;;31.30;93.10;;;;;;4955508;28;20208;-70
2023/07/11 15:18:07;;;;;;;2.10;1.08;;;31.50;93.20;;;;;;4955395;28;20685;-68
2023/07/11 15:20:35;;;;;;;3.55;1.13;;;31.70;93.40;;;;;;4950742;28;20235;-70
2023/07/11 15:23:02;;;;;;;4.10;1.10;;;31.70;92.80;;;;;;4955306;28;20208;-73
2023/07/11 15:25:31;;;;;;;1.75;0.90;;;31.50;92.50;;;;;;4954877;28;20212;-74
2023/07/11 15:27:59;;;;;;;3.10;1.20;;;31.50;94.00;;;;;;4955663;28;20211;-75
2023/07/11 15:30:26;;;;;;;2.10;1.10;;;31.50;93.00;;;;;;4944152;28;20262;-73
2023/07/11 15:32:53;;;;;;;2.30;1.00;;;31.20;92.90;;;;;;4936189;29;20236;-75
2023/07/11 15:35:22;;;;;;;3.75;1.00;;;31.10;93.60;;;;;;4952929;29;20204;-74
2023/07/11 15:37:51;;;;;;;1.15;0.93;;;30.90;93.40;;;;;;4955177;28;20196;-75
2023/07/11 15:40:20;;;;;;;1.65;1.10;;;30.90;94.10;;;;;;4945203;28;20225;-75
2023/07/11 15:42:47;;;;;;;1.05;0.75;;;30.80;93.60;;;;;;4936085;29;20209;-75
2023/07/11 15:45:20;;;;;;;1.90;1.10;;;30.80;92.70;;;;;;4951438;29;20591;-75
2023/07/11 15:47:47;;;;;;;2.28;1.00;;;30.90;93.70;;;;;;4955310;28;20314;-75
2023/07/11 15:50:15;;;;;;;2.13;0.90;;;31.10;93.70;;;;;;4945019;28;20233;-74
2023/07/11 15:52:42;;;;;;;2.00;0.90;;;31.00;92.80;;;;;;4936031;29;20215;-75
2023/07/11 15:55:15;;;;;;;2.55;1.05;;;31.20;93.30;;;;;;4950236;29;20727;-73
2023/07/11 15:57:42;;;;;;;2.05;1.08;;;31.50;92.80;;;;;;4954958;28;20204;-75
2023/07/11 16:00:17;;;;;;;1.80;1.10;;;31.60;92.60;;;;;;4946101;28;20751;-74
2023/07/11 16:02:44;;;;;;;1.63;0.90;;;31.40;93.50;;;;;;4935608;29;20294;-75
2023/07/11 16:05:12;;;;;;;2.53;1.13;;;31.20;92.50;;;;;;4949949;29;20203;-70
2023/07/11 16:07:39;;;;;;;2.97;1.10;;;31.20;93.90;;;;;;4955107;28;20579;-74
2023/07/11 16:10:18;;;;;;;2.25;0.90;;;31.10;93.20;;;;;;4946507;28;20232;-75
2023/07/11 16:12:45;;;;;;;2.08;1.00;;;31.10;93.60;;;;;;4935779;29;20215;-74
2023/07/11 16:15:13;;;;;;;2.92;1.33;;;31.30;93.20;;;;;;4949058;29;20204;-74
2023/07/11 16:17:41;;;;;;;2.25;1.20;;;31.30;93.30;;;;;;4939238;28;20655;-75
2023/07/11 16:20:19;;;;;;;1.48;1.05;;;31.30;93.00;;;;;;4939993;29;20263;-75
2023/07/11 16:22:46;;;;;;;1.33;0.98;;;31.20;92.40;;;;;;4937881;29;20215;-74
2023/07/11 16:25:15;;;;;;;1.50;1.20;;;31.10;93.30;;;;;;4939484;29;20213;-75
2023/07/11 16:27:45;;;;;;;1.45;1.00;;;31.10;93.30;;;;;;4939579;29;20737;-74
2023/07/11 16:30:20;;;;;;;2.55;1.33;;;30.90;92.80;;;;;;4939622;29;20228;-74
2023/07/11 16:32:48;;;;;;;3.17;1.05;;;30.80;93.00;;;;;;4939487;29;20231;-70
2023/07/11 16:35:16;;;;;;;3.95;1.35;;;30.80;93.50;;;;;;4939517;29;20260;-74
2023/07/11 16:37:45;;;;;;;1.88;1.17;;;30.70;93.30;;;;;;4939591;29;20209;-74
2023/07/11 16:40:19;;;;;;;2.42;1.30;;;30.90;93.50;;;;;;4939363;29;20237;-75
2023/07/11 16:42:46;;;;;;;4.30;1.20;;;31.00;93.40;;;;;;4939581;29;20307;-75
2023/07/11 16:45:14;;;;;;;2.70;1.10;;;31.00;94.00;;;;;;4939598;29;20205;-76
2023/07/11 16:47:42;;;;;;;2.65;1.30;;;31.00;94.10;;;;;;4939519;29;20213;-75
2023/07/11 16:50:17;;;;;;;3.67;1.77;;;31.10;94.50;;;;;;4939351;29;20232;-71
2023/07/11 16:52:44;;;;;;;1.83;1.13;;;31.10;93.60;;;;;;4939004;29;20719;-70
2023/07/11 16:55:12;;;;;;;1.98;1.00;;;30.90;93.40;;;;;;4939239;29;20224;-70
2023/07/11 16:57:41;;;;;;;0.93;0.80;;;31.00;94.30;;;;;;4939359;29;20209;-70
2023/07/11 17:00:16;;;;;;;3.03;1.40;;;31.00;93.70;;;;;;4939072;29;20739;-70
2023/07/11 17:02:44;;;;;;;3.72;1.10;;;31.10;94.00;;;;;;4939198;29;20216;-74
2023/07/11 17:05:10;;;;;;;2.13;1.13;;;30.90;93.40;;;;;;4938918;29;20211;-70
2023/07/11 17:07:38;;;;;;;3.42;1.00;;;30.90;93.40;;;;;;4938985;29;20212;-69
2023/07/11 17:10:07;;;;;;;1.80;1.00;;;30.70;93.20;;;;;;4938684;29;20762;-69
2023/07/11 17:12:34;;;;;;;1.75;1.08;;;30.80;92.80;;;;;;4938869;29;20785;-70
2023/07/11 17:15:04;;;;;;;2.13;1.10;;;30.70;93.20;;;;;;4938980;29;20252;-70
2023/07/11 17:17:31;;;;;;;2.20;1.00;;;30.70;93.40;;;;;;4938633;29;20672;-70
2023/07/11 17:19:59;;;;;;;1.95;1.20;;;30.70;93.40;;;;;;4938457;29;20228;-71
2023/07/11 17:22:26;;;;;;;2.25;1.05;;;30.60;93.20;;;;;;4938570;29;20643;-71
2023/07/11 17:24:53;;;;;;;1.65;0.85;;;30.60;93.30;;;;;;4938717;29;20209;-71
2023/07/11 17:27:22;;;;;;;2.33;1.02;;;30.70;93.30;;;;;;4938495;29;20213;-70
2023/07/11 17:29:52;;;;;;;2.45;0.80;;;30.90;93.70;;;;;;4936922;29;20312;-73
2023/07/11 17:32:22;;;;;;;1.63;1.00;;;31.00;94.20;;;;;;4939493;29;20243;-72
2023/07/11 17:34:49;;;;;;;3.15;1.08;;;30.90;93.20;;;;;;4946948;29;20280;-73
2023/07/11 17:37:25;;;;;;;3.70;1.10;;;31.00;93.40;;;;;;4948675;28;20208;-70
2023/07/11 17:39:52;;;;;;;4.03;1.50;;;31.10;93.90;;;;;;4944313;29;20740;-70
2023/07/11 17:42:24;;;;;;;1.48;0.90;;;31.10;93.20;;;;;;4940868;29;20208;-70
2023/07/11 17:44:53;;;;;;;2.38;0.80;;;31.10;93.40;;;;;;4948175;28;20746;-70
2023/07/11 17:47:23;;;;;;;2.42;0.75;;;30.90;95.10;;;;;;4951618;28;20264;-71
2023/07/11 17:49:50;;;;;;;2.90;0.80;;;30.70;95.70;;;;;;4964476;23;20679;-71
2023/07/11 17:52:20;;;;;;;2.00;0.80;;;30.40;96.30;;;;;;4970725;28;20247;-79
2023/07/11 17:54:47;;;;;;;1.73;0.75;;;30.00;96.50;;;;;;4969313;28;20217;-76
2023/07/11 17:57:15;;;;;;;1.38;0.77;;;29.60;96.80;;;;;;4972191;28;20212;-72
2023/07/11 17:59:43;;;;;;;2.25;0.73;;;29.40;97.30;;;;;;4971990;28;20218;-79
2023/07/11 18:02:19;;;;;;;0.93;0.65;;;29.10;97.50;;;;;;4943549;28;20663;-80
2023/07/11 18:04:48;;;;;;;2.47;0.85;;;28.90;97.90;;;;;;4956462;28;20265;-69
2023/07/11 18:07:17;;;;;;;0.80;0.60;;;28.60;98.20;;;;;;4956938;28;20219;-79
2023/07/11 18:09:44;;;;;;;1.75;0.57;;;28.50;98.50;;;;;;4956505;28;20304;-77
2023/07/11 18:12:18;;;;;;;1.88;0.60;;;28.40;98.80;;;;;;4955533;28;20322;-71
2023/07/11 18:14:45;;;;;;;2.97;0.80;;;28.30;99.10;;;;;;4956253;28;20223;-80
2023/07/11 18:17:14;;;;;;;1.63;0.80;;;28.20;99.40;;;;;;4957004;28;20541;-79
2023/07/11 18:19:41;;;;;;;3.15;0.88;;;28.20;99.50;;;;;;4956132;28;20243;-70
2023/07/11 18:22:19;;;;;;;1.58;0.88;;;28.20;99.30;;;;;;4956819;28;20222;-75
2023/07/11 18:24:46;;;;;;;1.50;0.60;;;28.10;99.60;;;;;;4956273;28;20677;-69
2023/07/11 18:27:15;;;;;;;0.95;0.50;;;27.90;99.80;;;;;;4956580;28;20208;-79
2023/07/11 18:29:43;;;;;;;2.58;0.77;;;27.70;99.90;;;;;;4956054;28;20660;-79
2023/07/11 18:32:21;;;;;;;2.95;1.25;;;27.60;99.90;;;;;;4955956;28;20644;-76
2023/07/11 18:34:49;;;;;;;2.08;0.65;;;27.40;99.90;;;;;;4956293;28;20663;-73
2023/07/11 18:37:18;;;;;;;2.90;0.60;;;27.30;99.90;;;;;;4955972;28;20212;-70
2023/07/11 18:39:47;;;;;;;1.70;0.70;;;27.20;99.90;;;;;;4956120;28;20214;-78
2023/07/11 18:42:16;;;;;;;1.55;0.70;;;27.20;99.90;;;;;;4954203;28;20220;-78
2023/07/11 18:44:43;;;;;;;1.27;0.50;;;27.20;99.90;;;;;;4954385;28;20219;-74
2023/07/11 18:47:20;;;;;;;1.35;0.60;;;26.90;99.90;;;;;;4954995;28;20214;-76
2023/07/11 18:49:48;;;;;;;2.13;0.70;;;26.70;99.90;;;;;;4955437;28;20199;-75
2023/07/11 18:52:20;;;;;;;1.80;0.73;;;26.50;99.90;;;;;;4954531;28;20698;-77
2023/07/11 18:54:47;;;;;;;1.98;0.70;;;26.20;99.90;;;;;;4954371;28;20686;-79
2023/07/11 18:57:15;;;;;;;1.55;0.70;;;26.00;99.90;;;;;;4954265;29;20218;-77
2023/07/11 18:59:43;;;;;;;4.28;0.70;;;25.80;99.90;;;;;;4954593;28;20204;-73
2023/07/11 19:02:20;;;;;;;1.92;0.68;;;25.50;99.90;;;;;;4955586;29;20267;-69
2023/07/11 19:04:49;;;;;;;2.22;0.75;;;25.30;99.90;;;;;;4943467;29;20226;-77
2023/07/11 19:07:19;;;;;;;1.70;0.80;;;25.20;99.90;;;;;;4955304;28;20211;-78
2023/07/11 19:09:50;;;;;;;4.32;0.95;;;24.90;99.90;;;;;;4954580;28;20207;-77
2023/07/11 19:12:24;;;;;;;3.85;0.90;;;24.70;99.90;;;;;;4955150;28;20246;-76
2023/07/11 19:14:52;;;;;;;2.88;1.20;;;24.50;99.90;;;;;;4954375;28;20258;-77
2023/07/11 19:17:32;;;;;;;1.75;0.80;;;24.30;99.90;;;;;;4955104;28;20208;-76
2023/07/11 19:20:00;;;;;;;2.95;0.82;;;24.10;99.90;;;;;;4954504;28;20722;-79
2023/07/11 19:22:29;;;;;;;2.15;0.70;;;24.00;99.90;;;;;;4954235;29;20205;-75
2023/07/11 19:24:56;;;;;;;3.17;1.00;;;23.90;99.90;;;;;;4953776;28;20299;-79
2023/07/11 19:27:24;;;;;;;1.95;0.88;;;23.80;99.90;;;;;;4954780;28;20209;-78
2023/07/11 19:29:51;;;;;;;1.90;0.80;;;23.70;99.90;;;;;;4954921;28;20278;-77
2023/07/11 19:32:18;;;;;;;2.75;1.10;;;23.60;99.90;;;;;;4954647;28;20239;-77
2023/07/11 19:34:45;;;;;;;2.50;0.90;;;23.50;99.90;;;;;;4954890;28;20243;-77
2023/07/11 19:37:15;;;;;;;1.95;1.00;;;23.40;99.90;;;;;;4953982;28;20678;-72
2023/07/11 19:39:43;;;;;;;2.38;1.00;;;23.40;99.90;;;;;;4954942;28;20207;-77
2023/07/11 19:42:16;;;;;;;1.77;1.08;;;23.40;99.90;;;;;;4953852;28;20266;-77
2023/07/11 19:44:43;;;;;;;1.77;0.70;;;23.40;99.90;;;;;;4954519;28;20611;-77
2023/07/11 19:47:17;;;;;;;3.45;1.00;;;23.40;99.90;;;;;;4953580;28;20219;-74
2023/07/11 19:49:44;;;;;;;3.75;1.02;;;23.30;99.90;;;;;;4954985;28;20206;-77
2023/07/11 19:52:11;;;;;;;4.20;0.93;;;23.30;99.90;;;;;;4953518;28;20224;-78
2023/07/11 19:54:38;;;;;;;7.05;1.17;;;23.30;99.90;;;;;;4954812;28;20239;-72
2023/07/11 19:57:10;;;;;;;1.23;0.65;;;23.30;99.90;;;;;;4949645;28;20668;-78
2023/07/11 19:59:39;;;;;;;2.45;0.98;;;23.20;99.90;;;;;;4952415;29;20204;-78
2023/07/11 20:02:16;;;;;;;2.72;1.00;;;23.20;99.90;;;;;;4953389;28;20560;-73
2023/07/11 20:04:43;;;;;;;2.22;0.98;;;23.10;99.90;;;;;;4947784;29;20207;-71
2023/07/11 20:07:12;;;;;;;3.35;0.82;;;23.10;99.90;;;;;;4954769;28;20215;-73
2023/07/11 20:09:39;;;;;;;4.05;1.00;;;23.00;99.90;;;;;;4953983;28;20567;-73
2023/07/11 20:12:39;;;;;;;2.63;0.80;;;23.10;99.90;;;;;;4954576;28;20237;-78
2023/07/11 20:15:07;;;;;;;1.63;0.80;;;23.10;99.90;;;;;;4953329;28;20212;-79
2023/07/11 20:17:34;;;;;;;4.10;1.25;;;23.10;99.90;;;;;;4954693;28;20226;-77
2023/07/11 20:20:02;;;;;;;2.92;0.77;;;23.30;99.90;;;;;;4953258;28;20227;-75
2023/07/11 20:22:28;;;;;;;1.35;0.80;;;23.30;99.90;;;;;;4954631;28;20216;-76
2023/07/11 20:24:55;;;;;;;1.00;0.63;;;23.20;99.90;;;;;;4953475;28;20559;-79
2023/07/11 20:27:30;;;;;;;2.88;0.80;;;23.30;99.90;;;;;;4954123;28;20208;-78
2023/07/11 20:29:57;;;;;;;2.85;0.70;;;23.20;99.90;;;;;;4950750;28;20638;-78
2023/07/11 20:32:24;;;;;;;0.90;0.40;;;23.10;99.90;;;;;;4954168;28;20232;-76
2023/07/11 20:34:50;;;;;;;2.33;0.50;;;23.10;99.90;;;;;;4953869;28;20215;-77
2023/07/11 20:37:17;;;;;;;3.08;0.75;;;23.00;99.90;;;;;;4940753;28;20571;-79
2023/07/11 20:39:45;;;;;;;0.73;0.60;;;23.00;99.90;;;;;;4953123;28;20204;-76
2023/07/11 20:42:12;;;;;;;1.23;0.60;;;23.10;99.90;;;;;;4953800;28;20212;-78
2023/07/11 20:44:40;;;;;;;1.52;0.60;;;23.20;99.90;;;;;;4954560;28;20209;-78
2023/07/11 20:47:14;;;;;;;0.93;0.45;;;23.20;99.90;;;;;;4953611;28;20869;-77
2023/07/11 20:49:41;;;;;;;0.95;0.60;;;23.00;99.90;;;;;;4950373;29;20215;-78
2023/07/11 20:52:10;;;;;;;1.20;0.47;;;22.70;99.90;;;;;;4949196;28;20227;-73
2023/07/11 20:54:36;;;;;;;0.60;0.50;;;22.60;99.90;;;;;;4941651;29;20291;-78
